createdAt,value
2023-02-13T00:00:48.003Z,18.90
2023-02-13T00:03:16.189Z,19.20
2023-02-13T00:05:44.293Z,18.55
2023-02-13T00:08:12.519Z,18.73
2023-02-13T00:10:40.652Z,18.80
2023-02-13T00:13:10.125Z,18.27
2023-02-13T00:15:38.193Z,17.63
2023-02-13T00:18:06.703Z,19.48
2023-02-13T00:20:34.911Z,18.52
2023-02-13T00:23:03.148Z,18.65
2023-02-13T00:25:31.210Z,16.75
2023-02-13T00:27:59.259Z,16.75
2023-02-13T00:30:28.722Z,17.52
2023-02-13T00:32:56.780Z,16.17
2023-02-13T00:35:24.838Z,15.48
2023-02-13T00:37:52.877Z,16.50
2023-02-13T00:40:21.041Z,17.23
2023-02-13T00:42:49.091Z,17.17
2023-02-13T00:45:17.274Z,18.20
2023-02-13T00:47:46.728Z,19.08
2023-02-13T00:50:14.816Z,17.50
2023-02-13T00:52:42.954Z,17.10
2023-02-13T00:55:10.979Z,16.88
2023-02-13T00:57:39.079Z,16.02
2023-02-13T01:00:09.192Z,15.73
2023-02-13T01:02:37.266Z,17.15
2023-02-13T01:05:07.816Z,16.02
2023-02-13T01:07:36.658Z,16.88
2023-02-13T01:10:05.039Z,17.90
2023-02-13T01:12:33.249Z,19.35
2023-02-13T01:15:01.326Z,18.08
2023-02-13T01:17:29.356Z,17.55
2023-02-13T01:19:57.367Z,18.20
2023-02-13T01:22:27.042Z,17.50
2023-02-13T01:24:55.100Z,14.40
2023-02-13T01:27:23.132Z,13.50
2023-02-13T01:29:51.195Z,11.88
2023-02-13T01:32:19.348Z,13.70
2023-02-13T01:34:48.518Z,14.60
2023-02-13T01:37:16.621Z,14.05
2023-02-13T01:39:46.102Z,14.23
2023-02-13T01:42:17.839Z,14.20
2023-02-13T01:44:49.037Z,13.80
2023-02-13T01:47:21.740Z,12.43
2023-02-13T01:49:51.740Z,12.70
2023-02-13T01:52:19.876Z,13.48
2023-02-13T01:54:49.386Z,13.27
2023-02-13T01:59:51.472Z,15.68
2023-02-13T02:02:20.655Z,16.35
2023-02-13T02:04:49.904Z,16.15
2023-02-13T02:07:22.361Z,17.17
2023-02-13T02:09:54.588Z,17.15
2023-02-13T02:12:27.488Z,16.35
2023-02-13T02:14:58.964Z,17.40
2023-02-13T02:17:28.978Z,17.90
2023-02-13T02:20:08.648Z,17.88
2023-02-13T02:23:12.120Z,18.15
2023-02-13T02:26:10.191Z,16.73
2023-02-13T02:29:27.028Z,17.92
2023-02-13T02:32:12.006Z,17.45
2023-02-13T02:34:52.398Z,15.55
2023-02-13T02:37:32.142Z,15.60
2023-02-13T02:40:11.864Z,15.77
2023-02-13T02:42:50.594Z,14.65
2023-02-13T02:45:25.940Z,15.70
2023-02-13T02:48:17.948Z,15.57
2023-02-13T02:50:51.298Z,15.80
2023-02-13T02:53:30.275Z,14.13
2023-02-13T02:56:06.316Z,14.63
2023-02-13T02:58:57.828Z,14.73
2023-02-13T03:01:47.906Z,15.23
2023-02-13T03:04:38.844Z,16.30
2023-02-13T03:07:10.508Z,15.40
2023-02-13T03:09:59.117Z,15.23
2023-02-13T03:12:52.258Z,11.17
2023-02-13T03:15:20.790Z,14.75
2023-02-13T03:18:06.626Z,12.10
2023-02-13T03:21:03.284Z,15.30
2023-02-13T03:23:41.653Z,15.38
2023-02-13T03:26:51.215Z,16.00
2023-02-13T03:29:56.333Z,17.17
2023-02-13T03:32:32.680Z,16.20
2023-02-13T03:35:32.025Z,17.33
2023-02-13T03:38:10.155Z,17.52
2023-02-13T03:41:00.244Z,16.85
2023-02-13T03:43:32.827Z,16.65
2023-02-13T03:46:02.965Z,16.55
2023-02-13T03:48:51.724Z,16.20
2023-02-13T03:51:24.485Z,17.65
2023-02-13T03:53:58.182Z,16.10
2023-02-13T03:56:46.402Z,15.70
2023-02-13T03:59:22.634Z,16.83
2023-02-13T04:02:00.711Z,17.38
2023-02-13T04:04:36.039Z,16.95
2023-02-13T04:07:06.920Z,17.83
2023-02-13T04:09:39.902Z,17.42
2023-02-13T04:12:15.412Z,17.45
2023-02-13T04:14:49.342Z,17.05
2023-02-13T04:17:22.819Z,17.08
2023-02-13T04:19:50.946Z,17.33
2023-02-13T04:22:19.223Z,16.90
2023-02-13T04:24:48.672Z,17.50
2023-02-13T04:27:18.382Z,16.77
2023-02-13T04:29:46.464Z,15.80
2023-02-13T04:32:15.242Z,16.23
2023-02-13T04:34:43.358Z,17.45
2023-02-13T04:37:11.410Z,16.75
2023-02-13T04:39:39.478Z,16.55
2023-02-13T04:42:08.920Z,16.75
2023-02-13T04:44:36.979Z,16.73
2023-02-13T04:47:05.116Z,16.70
2023-02-13T04:49:33.200Z,15.57
2023-02-13T04:52:01.282Z,17.83
2023-02-13T04:54:29.386Z,16.88
2023-02-13T04:56:57.460Z,15.88
2023-02-13T04:59:26.914Z,15.05
2023-02-13T05:01:55.147Z,15.00
2023-02-13T05:04:25.407Z,14.70
2023-02-13T05:06:53.596Z,14.35
2023-02-13T05:09:21.692Z,14.30
2023-02-13T05:11:52.682Z,14.77
2023-02-13T05:14:20.829Z,13.15
2023-02-13T05:16:50.751Z,14.48
2023-02-13T05:19:18.824Z,15.55
2023-02-13T05:22:04.224Z,14.10
2023-02-13T05:24:32.429Z,13.13
2023-02-13T05:27:00.528Z,13.85
2023-02-13T05:29:28.624Z,13.15
2023-02-13T05:31:59.870Z,13.65
2023-02-13T05:34:29.686Z,12.98
2023-02-13T05:36:57.865Z,13.05
2023-02-13T05:39:25.977Z,13.88
2023-02-13T05:41:54.148Z,15.20
2023-02-13T05:44:22.178Z,15.20
2023-02-13T05:46:50.365Z,15.65
2023-02-13T05:49:20.052Z,14.50
2023-02-13T05:51:48.120Z,15.52
2023-02-13T05:54:16.680Z,14.18
2023-02-13T05:56:44.743Z,10.95
2023-02-13T05:59:12.810Z,14.50
2023-02-13T06:01:40.923Z,15.98
2023-02-13T06:04:09.089Z,17.45
2023-02-13T06:06:38.548Z,19.17
2023-02-13T06:09:06.697Z,16.17
2023-02-13T06:11:34.775Z,16.75
2023-02-13T06:14:02.801Z,18.73
2023-02-13T06:16:31.335Z,16.73
2023-02-13T06:18:59.463Z,16.38
2023-02-13T06:21:27.648Z,19.42
2023-02-13T06:23:57.149Z,17.60
2023-02-13T06:28:53.282Z,22.90
2023-02-13T06:31:21.460Z,21.45
2023-02-13T06:33:49.593Z,20.30
2023-02-13T06:36:17.672Z,20.00
2023-02-13T06:38:45.829Z,19.75
2023-02-13T06:41:15.218Z,20.17
2023-02-13T06:43:43.260Z,20.55
2023-02-13T06:46:11.363Z,18.77
2023-02-13T06:48:39.400Z,20.25
2023-02-13T06:51:07.605Z,21.88
2023-02-13T06:53:35.696Z,42.70
2023-02-13T06:56:06.147Z,36.42
2023-02-13T06:58:35.967Z,38.15
2023-02-13T07:01:04.093Z,29.92
2023-02-13T07:03:32.282Z,31.90
2023-02-13T07:06:00.446Z,32.33
2023-02-13T07:08:28.624Z,31.98
2023-02-13T07:10:57.025Z,29.17
2023-02-13T07:13:25.302Z,28.90
2023-02-13T07:15:54.751Z,33.40
2023-02-13T07:18:22.803Z,34.65
2023-02-13T07:20:50.888Z,31.88
2023-02-13T07:23:18.947Z,33.95
2023-02-13T07:25:47.009Z,34.63
2023-02-13T07:28:15.153Z,36.20
2023-02-13T07:30:43.261Z,37.10
2023-02-13T07:33:13.749Z,39.70
2023-02-13T07:35:46.979Z,34.08
2023-02-13T07:38:15.119Z,33.67
2023-02-13T07:40:43.381Z,35.30
2023-02-13T07:43:12.034Z,44.40
2023-02-13T07:45:40.107Z,33.73
2023-02-13T07:48:08.196Z,40.53
2023-02-13T07:50:37.616Z,41.50
2023-02-13T07:53:05.679Z,41.20
2023-02-13T07:55:33.747Z,42.20
2023-02-13T07:58:02.769Z,40.80
2023-02-13T08:00:30.926Z,30.38
2023-02-13T08:03:00.951Z,37.78
2023-02-13T08:05:29.408Z,39.33
2023-02-13T08:07:58.880Z,41.90
2023-02-13T08:10:44.424Z,40.50
2023-02-13T08:13:15.092Z,48.65
2023-02-13T08:15:44.453Z,44.10
2023-02-13T08:18:12.516Z,42.05
2023-02-13T08:20:40.588Z,46.75
2023-02-13T08:23:12.125Z,46.33
2023-02-13T08:25:40.568Z,47.35
2023-02-13T08:28:09.900Z,43.53
2023-02-13T08:30:38.198Z,43.80
2023-02-13T08:33:06.297Z,46.17
2023-02-13T08:35:34.347Z,41.55
2023-02-13T08:38:05.982Z,39.35
2023-02-13T08:40:35.402Z,40.25
2023-02-13T08:43:04.361Z,39.38
2023-02-13T08:45:32.984Z,36.03
2023-02-13T08:48:03.804Z,34.35
2023-02-13T08:50:32.886Z,36.72
2023-02-13T08:55:29.863Z,37.42
2023-02-13T08:58:01.614Z,48.33
2023-02-13T09:00:30.304Z,40.72
2023-02-13T09:03:02.142Z,26.57
2023-02-13T09:05:31.764Z,35.85
2023-02-13T09:10:28.851Z,29.73
2023-02-13T09:12:56.886Z,29.58
2023-02-13T09:15:26.406Z,33.83
2023-02-13T09:17:54.532Z,32.75
2023-02-13T09:20:22.614Z,34.03
2023-02-13T09:22:50.735Z,32.75
2023-02-13T09:25:20.264Z,30.67
2023-02-13T09:27:48.418Z,29.38
2023-02-13T09:30:23.204Z,32.22
2023-02-13T09:32:53.278Z,29.33
2023-02-13T09:35:22.279Z,29.95
2023-02-13T09:37:50.318Z,26.13
2023-02-13T09:40:24.392Z,24.50
2023-02-13T09:42:53.838Z,23.30
2023-02-13T09:47:52.563Z,22.00
2023-02-13T09:50:24.468Z,21.30
2023-02-13T09:52:54.550Z,20.85
2023-02-13T09:55:28.313Z,20.05
2023-02-13T09:58:01.957Z,18.02
2023-02-13T10:00:36.745Z,19.15
2023-02-13T10:03:34.960Z,16.83
2023-02-13T10:06:10.832Z,14.32
2023-02-13T10:08:59.191Z,17.40
2023-02-13T10:11:45.342Z,16.08
2023-02-13T10:14:18.585Z,14.52
2023-02-13T10:16:50.819Z,14.40
2023-02-13T10:19:32.483Z,23.95
2023-02-13T10:22:05.877Z,10.27
2023-02-13T10:24:38.766Z,9.77
2023-02-13T10:27:19.254Z,10.32
2023-02-13T10:30:06.856Z,11.05
2023-02-13T10:32:45.028Z,10.55
2023-02-13T10:35:24.753Z,9.82
2023-02-13T10:37:56.132Z,8.68
2023-02-13T10:40:31.242Z,8.60
2023-02-13T10:43:07.390Z,9.57
2023-02-13T10:46:02.413Z,8.60
2023-02-13T10:48:53.307Z,11.13
2023-02-13T10:51:28.509Z,11.25
2023-02-13T10:54:14.939Z,9.35
2023-02-13T10:56:47.759Z,9.05
2023-02-13T10:59:35.971Z,7.43
2023-02-13T11:02:21.712Z,8.18
2023-02-13T11:04:51.718Z,8.60
2023-02-13T11:07:25.395Z,8.60
2023-02-13T11:09:57.504Z,8.13
2023-02-13T11:12:28.488Z,8.20
2023-02-13T11:14:58.380Z,8.18
2023-02-13T11:17:29.751Z,8.40
2023-02-13T11:20:00.030Z,8.27
2023-02-13T11:22:33.968Z,8.32
2023-02-13T11:25:05.302Z,7.57
2023-02-13T11:27:35.758Z,9.48
2023-02-13T11:30:07.872Z,8.85
2023-02-13T11:32:36.928Z,8.40
2023-02-13T11:35:29.018Z,8.57
2023-02-13T11:38:24.044Z,8.02
2023-02-13T11:40:54.664Z,8.00
2023-02-13T11:43:28.869Z,7.93
2023-02-13T11:46:05.309Z,8.70
2023-02-13T11:48:33.493Z,9.02
2023-02-13T11:51:02.044Z,7.78
2023-02-13T11:53:37.056Z,8.47
2023-02-13T11:56:11.645Z,8.52
2023-02-13T11:58:40.095Z,8.32
2023-02-13T12:01:28.274Z,7.80
2023-02-13T12:04:05.078Z,7.50
2023-02-13T12:06:39.511Z,8.10
2023-02-13T12:09:13.842Z,7.45
2023-02-13T12:11:46.872Z,7.45
2023-02-13T12:14:21.188Z,8.63
2023-02-13T12:16:53.947Z,8.13
2023-02-13T12:19:27.074Z,8.52
2023-02-13T12:22:07.698Z,9.55
2023-02-13T12:25:10.437Z,9.45
2023-02-13T12:27:50.474Z,8.32
2023-02-13T12:30:39.881Z,7.28
2023-02-13T12:33:22.884Z,7.18
2023-02-13T12:35:57.858Z,7.38
2023-02-13T12:38:38.005Z,6.82
2023-02-13T12:41:17.547Z,6.82
2023-02-13T12:44:17.715Z,7.03
2023-02-13T12:46:55.864Z,7.07
2023-02-13T12:49:47.514Z,6.70
2023-02-13T12:52:37.488Z,7.20
2023-02-13T12:55:44.442Z,6.70
2023-02-13T12:58:35.336Z,6.43
2023-02-13T13:01:14.513Z,7.05
2023-02-13T13:03:48.985Z,7.35
2023-02-13T13:06:43.836Z,7.50
2023-02-13T13:09:49.731Z,5.90
2023-02-13T13:12:38.117Z,6.68
2023-02-13T13:15:15.536Z,7.28
2023-02-13T13:17:55.407Z,7.80
2023-02-13T13:20:51.552Z,7.20
2023-02-13T13:23:24.370Z,8.48
2023-02-13T13:26:03.416Z,6.80
2023-02-13T13:28:36.495Z,7.57
2023-02-13T13:31:07.152Z,6.60
2023-02-13T13:33:37.870Z,7.13
2023-02-13T13:36:10.760Z,7.03
2023-02-13T13:38:52.221Z,7.30
2023-02-13T13:41:30.684Z,7.63
2023-02-13T13:44:20.627Z,5.80
2023-02-13T13:46:58.921Z,5.63
2023-02-13T13:49:38.380Z,6.65
2023-02-13T13:54:51.622Z,7.03
2023-02-13T13:57:20.534Z,6.80
2023-02-13T14:00:27.437Z,6.57
2023-02-13T14:03:25.180Z,6.70
2023-02-13T14:06:02.240Z,6.47
2023-02-13T14:09:07.278Z,6.93
2023-02-13T14:11:46.557Z,6.38
2023-02-13T14:14:53.066Z,6.43
2023-02-13T14:17:53.380Z,6.80
2023-02-13T14:20:38.450Z,7.68
2023-02-13T14:23:18.908Z,7.30
2023-02-13T14:25:47.644Z,7.30
2023-02-13T14:28:25.585Z,8.55
2023-02-13T14:31:05.658Z,8.27
2023-02-13T14:33:34.594Z,7.40
2023-02-13T14:36:08.065Z,8.15
2023-02-13T14:38:37.455Z,7.80
2023-02-13T14:41:07.275Z,6.10
2023-02-13T14:43:38.989Z,6.15
2023-02-13T14:46:19.724Z,5.88
2023-02-13T14:48:53.561Z,6.50
2023-02-13T14:51:29.448Z,6.40
2023-02-13T14:54:02.540Z,6.97
2023-02-13T14:56:31.713Z,6.50
2023-02-13T14:59:10.373Z,6.05
2023-02-13T15:01:46.009Z,4.97
2023-02-13T15:04:18.971Z,6.55
2023-02-13T15:06:50.054Z,6.43
2023-02-13T15:09:27.757Z,6.25
2023-02-13T15:11:55.865Z,6.22
2023-02-13T15:14:26.719Z,5.80
2023-02-13T15:16:59.392Z,6.40
2023-02-13T15:19:28.387Z,7.55
2023-02-13T15:22:00.163Z,7.53
2023-02-13T15:24:32.165Z,5.80
2023-02-13T15:27:04.877Z,5.53
2023-02-13T15:29:48.853Z,5.32
2023-02-13T15:32:21.941Z,5.53
2023-02-13T15:34:50.470Z,6.28
2023-02-13T15:37:30.002Z,5.83
2023-02-13T15:42:41.074Z,7.22
2023-02-13T15:45:16.218Z,6.03
2023-02-13T15:47:45.323Z,5.80
2023-02-13T15:50:19.484Z,5.18
2023-02-13T15:52:49.357Z,5.13
2023-02-13T15:55:23.838Z,5.15
2023-02-13T15:57:54.765Z,5.20
2023-02-13T16:00:26.371Z,5.82
2023-02-13T16:02:56.202Z,5.60
2023-02-13T16:05:39.509Z,6.03
2023-02-13T16:08:30.374Z,5.55
2023-02-13T16:11:29.624Z,5.97
2023-02-13T16:14:07.538Z,7.32
2023-02-13T16:16:44.372Z,8.07
2023-02-13T16:19:26.928Z,8.20
2023-02-13T16:21:57.398Z,6.63
2023-02-13T16:24:28.825Z,6.60
2023-02-13T16:26:57.548Z,5.95
2023-02-13T16:29:27.271Z,5.22
2023-02-13T16:32:03.988Z,8.02
2023-02-13T16:34:32.999Z,7.78
2023-02-13T16:37:01.132Z,5.95
2023-02-13T16:39:32.320Z,5.00
2023-02-13T16:42:01.851Z,5.28
2023-02-13T16:47:01.508Z,6.53
2023-02-13T16:49:32.385Z,11.88
2023-02-13T16:52:07.892Z,14.13
2023-02-13T16:54:40.527Z,11.27
2023-02-13T16:57:24.527Z,12.15
2023-02-13T17:00:09.693Z,12.65
2023-02-13T17:02:40.005Z,16.00
2023-02-13T17:05:22.451Z,13.52
2023-02-13T17:07:52.973Z,18.60
2023-02-13T17:10:27.155Z,19.65
2023-02-13T17:12:58.210Z,19.98
2023-02-13T17:15:28.157Z,24.23
2023-02-13T17:17:56.352Z,16.27
2023-02-13T17:20:27.050Z,13.45
2023-02-13T17:22:56.807Z,11.35
2023-02-13T17:25:28.742Z,12.20
2023-02-13T17:27:58.672Z,13.30
2023-02-13T17:30:29.561Z,12.18
2023-02-13T17:33:00.866Z,11.10
2023-02-13T17:35:28.964Z,13.90
2023-02-13T17:37:57.054Z,11.82
2023-02-13T17:40:30.137Z,12.00
2023-02-13T17:42:59.590Z,12.00
2023-02-13T17:47:58.261Z,33.20
2023-02-13T17:50:27.087Z,22.65
2023-02-13T17:52:55.691Z,24.95
2023-02-13T17:55:26.800Z,20.57
2023-02-13T17:57:57.493Z,21.70
2023-02-13T18:00:27.986Z,19.58
2023-02-13T18:02:56.684Z,16.38
2023-02-13T18:05:25.041Z,17.00
2023-02-13T18:07:53.127Z,16.63
2023-02-13T18:10:23.533Z,17.40
2023-02-13T18:12:53.690Z,17.23
2023-02-13T18:15:22.395Z,16.58
2023-02-13T18:17:50.689Z,13.90
2023-02-13T18:20:21.293Z,14.75
2023-02-13T18:22:50.501Z,15.10
2023-02-13T18:25:20.061Z,15.10
2023-02-13T18:30:20.329Z,13.95
2023-02-13T18:32:52.072Z,14.13
2023-02-13T18:35:20.350Z,13.82
2023-02-13T18:37:48.423Z,13.40
2023-02-13T18:40:17.531Z,13.57
2023-02-13T18:42:45.924Z,14.15
2023-02-13T18:45:14.113Z,12.70
2023-02-13T18:47:44.026Z,14.60
2023-02-13T18:50:12.493Z,14.65
2023-02-13T18:52:40.588Z,14.38
2023-02-13T18:55:09.374Z,12.82
2023-02-13T18:57:37.483Z,9.52
2023-02-13T19:00:07.174Z,12.73
2023-02-13T19:02:35.314Z,10.93
2023-02-13T19:05:06.303Z,11.73
2023-02-13T19:07:34.520Z,12.63
2023-02-13T19:10:02.591Z,12.55
2023-02-13T19:12:30.909Z,12.10
2023-02-13T19:14:58.989Z,11.65
2023-02-13T19:17:27.151Z,13.18
2023-02-13T19:19:55.759Z,12.05
2023-02-13T19:22:25.324Z,9.63
2023-02-13T19:27:21.353Z,11.48
2023-02-13T19:29:49.541Z,12.45
2023-02-13T19:32:17.703Z,11.50
2023-02-13T19:34:46.906Z,12.35
2023-02-13T19:37:15.012Z,13.07
2023-02-13T19:39:44.461Z,12.25
2023-02-13T19:42:12.506Z,12.40
2023-02-13T19:44:40.589Z,12.70
2023-02-13T19:47:08.648Z,12.75
2023-02-13T19:49:36.685Z,13.35
2023-02-13T19:52:04.752Z,14.48
2023-02-13T19:54:34.063Z,14.18
2023-02-13T19:57:05.675Z,16.92
2023-02-13T19:59:33.854Z,15.45
2023-02-13T20:02:01.986Z,17.15
2023-02-13T20:04:30.075Z,17.50
2023-02-13T20:06:58.367Z,16.15
2023-02-13T20:09:26.517Z,14.93
2023-02-13T20:11:54.597Z,12.90
2023-02-13T20:14:24.013Z,9.73
2023-02-13T20:16:52.085Z,9.18
2023-02-13T20:19:20.183Z,10.20
2023-02-13T20:21:48.268Z,11.10
2023-02-13T20:24:16.574Z,9.73
2023-02-13T20:26:44.638Z,10.18
2023-02-13T20:29:12.799Z,9.50
2023-02-13T20:31:42.309Z,9.68
2023-02-13T20:36:38.835Z,9.57
2023-02-13T20:39:08.693Z,9.05
2023-02-13T20:41:38.364Z,10.10
2023-02-13T20:44:08.716Z,10.82
2023-02-13T20:46:38.973Z,10.25
2023-02-13T20:49:09.123Z,10.63
2023-02-13T20:51:37.393Z,10.60
2023-02-13T20:54:06.370Z,10.80
2023-02-13T20:56:34.503Z,13.02
2023-02-13T20:59:05.227Z,12.60
2023-02-13T21:01:35.155Z,11.55
2023-02-13T21:04:03.863Z,11.55
2023-02-13T21:06:36.058Z,12.20
2023-02-13T21:09:06.433Z,11.23
2023-02-13T21:11:35.374Z,11.88
2023-02-13T21:14:04.409Z,13.02
2023-02-13T21:16:35.825Z,14.50
2023-02-13T21:19:07.558Z,15.23
2023-02-13T21:21:38.363Z,14.40
2023-02-13T21:24:10.997Z,14.57
2023-02-13T21:26:39.739Z,14.52
2023-02-13T21:29:07.992Z,13.68
2023-02-13T21:31:38.954Z,14.52
2023-02-13T21:34:09.500Z,14.73
2023-02-13T21:36:40.148Z,16.98
2023-02-13T21:39:09.827Z,14.43
2023-02-13T21:41:39.908Z,14.90
2023-02-13T21:44:08.005Z,15.93
2023-02-13T21:46:36.060Z,15.82
2023-02-13T21:49:06.144Z,16.85
2023-02-13T21:51:36.431Z,14.15
2023-02-13T21:54:06.393Z,15.07
2023-02-13T21:56:36.529Z,14.02
2023-02-13T21:59:05.223Z,14.32
2023-02-13T22:01:35.281Z,10.07
2023-02-13T22:04:06.400Z,13.90
2023-02-13T22:06:36.772Z,14.23
2023-02-13T22:09:08.357Z,11.57
2023-02-13T22:11:37.410Z,9.02
2023-02-13T22:14:07.627Z,9.68
2023-02-13T22:16:37.759Z,8.93
2023-02-13T22:19:07.600Z,14.23
2023-02-13T22:21:37.242Z,15.77
2023-02-13T22:24:07.511Z,18.73
2023-02-13T22:26:37.667Z,20.50
2023-02-13T22:29:07.465Z,19.17
2023-02-13T22:31:36.324Z,18.35
2023-02-13T22:34:05.690Z,18.52
2023-02-13T22:36:35.325Z,16.85
2023-02-13T22:39:03.434Z,13.77
2023-02-13T22:41:32.881Z,15.15
2023-02-13T22:44:00.940Z,13.00
2023-02-13T22:46:30.501Z,13.35
2023-02-13T22:48:59.358Z,12.35
2023-02-13T22:51:29.690Z,12.27
2023-02-13T22:53:59.212Z,11.73
2023-02-13T22:58:57.644Z,8.82
2023-02-13T23:01:27.862Z,11.88
2023-02-13T23:03:56.367Z,12.10
2023-02-13T23:06:24.971Z,11.63
2023-02-13T23:08:54.589Z,9.93
2023-02-13T23:11:41.914Z,9.70
2023-02-13T23:14:12.200Z,10.38
2023-02-13T23:16:59.211Z,9.70
2023-02-13T23:19:27.701Z,10.68
2023-02-13T23:21:55.903Z,9.93
2023-02-13T23:24:24.094Z,11.48
2023-02-13T23:26:52.236Z,9.40
2023-02-13T23:29:21.890Z,10.73
2023-02-13T23:31:50.095Z,10.18
2023-02-13T23:34:18.276Z,10.23
2023-02-13T23:36:46.346Z,10.13
2023-02-13T23:39:14.727Z,9.60
2023-02-13T23:41:42.976Z,9.20
2023-02-13T23:44:11.024Z,9.50
2023-02-13T23:46:40.504Z,10.15
2023-02-13T23:51:36.453Z,9.38
2023-02-13T23:54:04.938Z,9.48
2023-02-13T23:56:33.107Z,10.33
2023-02-13T23:59:01.172Z,9.05
